Time;durP1;ratioP1;P1;durP2;ratioP2;P2;SDS_P1;SDS_P2;PMS_P1;PMS_P2;Temp;Humidity;BMP_temperature;BMP_pressure;BME280_temperature;BME280_humidity;BME280_pressure;Samples;Min_cycle;Max_cycle;Signal;HPM_P1;HPM_P2
2022/05/17 00:02:08;;;;;;;6.95;3.03;;;;;;;16.58;91.31;94810.72;4796569;29;20358;-95
2022/05/17 00:04:34;;;;;;;4.95;2.65;;;;;;;16.51;90.38;94810.31;4796536;29;20031;-95
2022/05/17 00:07:01;;;;;;;11.60;2.90;;;;;;;16.68;86.45;94805.22;4796201;29;20034;-95
2022/05/17 00:09:26;;;;;;;9.95;3.10;;;;;;;16.91;87.93;94812.44;4826642;29;20041;-95
2022/05/17 00:11:52;;;;;;;7.75;3.28;;;;;;;16.88;86.76;94813.03;4810619;29;20034;-96
2022/05/17 00:14:18;;;;;;;12.50;3.03;;;;;;;16.95;84.50;94805.50;4810906;29;20035;-94
2022/05/17 00:16:45;;;;;;;5.82;3.03;;;;;;;16.93;85.42;94811.06;4810719;29;20133;-94
2022/05/17 00:19:12;;;;;;;12.13;2.95;;;;;;;16.96;85.93;94801.75;4826445;29;20035;-94
2022/05/17 00:21:37;;;;;;;10.75;2.97;;;;;;;16.40;100.00;94793.88;4811147;29;20095;-94
2022/05/17 00:24:05;;;;;;;6.65;3.10;;;;;;;16.53;99.54;94801.00;4825879;29;20038;-95
2022/05/17 00:26:34;;;;;;;12.93;3.22;;;;;;;16.31;100.00;94793.75;4811137;29;20034;-94
2022/05/17 00:29:00;;;;;;;5.28;2.83;;;;;;;16.39;100.00;94802.88;4810805;29;20471;-95
2022/05/17 00:31:26;;;;;;;9.30;3.05;;;;;;;16.44;99.64;94794.84;4826107;29;20041;-93
2022/05/17 00:33:53;;;;;;;4.43;2.55;;;;;;;16.50;98.91;94798.97;4810448;29;20035;-95
2022/05/17 00:36:19;;;;;;;7.65;3.03;;;;;;;16.52;99.51;94803.94;4795729;29;20039;-94
2022/05/17 00:38:45;;;;;;;13.50;3.72;;;;;;;16.56;100.00;94796.22;4825697;29;20436;-94
2022/05/17 00:41:10;;;;;;;10.30;3.15;;;;;;;16.36;100.00;94787.59;4795703;29;20038;-95
2022/05/17 00:46:30;;;;;;;10.05;2.90;;;;;;;15.96;100.00;94786.19;4810609;29;20402;-95
2022/05/17 00:48:56;;;;;;;17.15;3.88;;;;;;;15.90;100.00;94789.97;4795651;29;20065;-95
2022/05/17 00:51:26;;;;;;;10.02;3.40;;;;;;;15.95;100.00;94781.16;4810275;29;20066;-94
2022/05/17 00:54:05;;;;;;;7.32;2.92;;;;;;;15.94;100.00;94787.53;4825793;29;20150;-95
2022/05/17 00:56:32;;;;;;;8.38;3.22;;;;;;;15.88;100.00;94786.81;4810226;29;20046;-93
2022/05/17 00:58:59;;;;;;;12.77;3.13;;;;;;;16.07;100.00;94784.13;4795228;29;20039;-95
2022/05/17 01:01:26;;;;;;;10.27;3.30;;;;;;;16.07;100.00;94776.19;4810175;29;20041;-94
2022/05/17 01:04:07;;;;;;;6.78;3.28;;;;;;;16.31;100.00;94777.91;4825078;29;20360;-96
2022/05/17 01:06:42;;;;;;;11.82;3.10;;;;;;;16.39;100.00;94774.56;4811097;29;20050;-95
2022/05/17 01:09:09;;;;;;;10.63;3.63;;;;;;;16.31;100.00;94769.16;4810086;29;20083;-95
2022/05/17 01:11:34;;;;;;;10.18;3.55;;;;;;;16.08;100.00;94772.47;4825243;29;20444;-94
2022/05/17 01:16:45;;;;;;;13.32;3.70;;;;;;;15.85;100.00;94763.63;4823007;29;20057;-95
2022/05/17 01:19:10;;;;;;;10.20;3.20;;;;;;;15.94;100.00;94767.19;4810922;29;20152;-94
2022/05/17 01:21:37;;;;;;;11.73;3.83;;;;;;;15.93;100.00;94757.69;4825071;29;20046;-95
2022/05/17 01:24:02;;;;;;;15.48;3.60;;;;;;;15.78;100.00;94765.84;4824759;29;20103;-95
2022/05/17 01:26:29;;;;;;;18.38;3.40;;;;;;;15.62;100.00;94757.41;4809603;29;20038;-95
2022/05/17 01:28:55;;;;;;;8.57;3.85;;;;;;;15.60;100.00;94760.31;4809794;29;20034;-94
2022/05/17 01:31:21;;;;;;;6.80;3.20;;;;;;;15.64;100.00;94758.69;4824905;29;20039;-95
2022/05/17 01:33:46;;;;;;;12.50;3.97;;;;;;;15.49;100.00;94757.06;4811116;29;20038;-94
2022/05/17 01:36:21;;;;;;;12.07;3.17;;;;;;;15.29;100.00;94754.75;4825347;29;20086;-95
2022/05/17 01:38:51;;;;;;;11.65;3.92;;;;;;;15.36;100.00;94758.59;4813367;29;20030;-96
2022/05/17 01:41:35;;;;;;;9.50;3.53;;;;;;;15.60;100.00;94760.31;4826641;29;20031;-95
2022/05/17 01:44:00;;;;;;;13.38;3.88;;;;;;;15.60;100.00;94756.91;4827456;29;20121;-95
2022/05/17 01:46:26;;;;;;;9.65;4.07;;;;;;;15.56;100.00;94751.41;4824762;29;20184;-95
2022/05/17 01:48:52;;;;;;;10.40;3.28;;;;;;;15.50;100.00;94752.56;4810292;29;20041;-95
2022/05/17 01:51:18;;;;;;;10.75;3.53;;;;;;;15.57;100.00;94755.63;4810438;29;20438;-95
2022/05/17 01:53:43;;;;;;;7.15;3.17;;;;;;;15.52;100.00;94761.00;4809300;29;20037;-94
2022/05/17 01:56:09;;;;;;;7.80;3.72;;;;;;;15.54;100.00;94753.56;4794048;29;20437;-95
2022/05/17 01:58:35;;;;;;;12.30;3.55;;;;;;;15.38;100.00;94751.16;4824742;29;20433;-95
2022/05/17 02:01:02;;;;;;;11.05;3.38;;;;;;;15.44;100.00;94748.44;4808995;29;20081;-95
2022/05/17 02:03:28;;;;;;;7.43;3.08;;;;;;;15.43;100.00;94752.16;4809043;29;20467;-94
2022/05/17 02:05:53;;;;;;;8.68;3.47;;;;;;;15.41;100.00;94753.22;4824697;29;20088;-95
2022/05/17 02:08:19;;;;;;;7.53;3.40;;;;;;;15.41;100.00;94749.78;4824307;29;20042;-95
2022/05/17 02:10:45;;;;;;;9.13;3.53;;;;;;;15.32;100.00;94754.16;4808982;29;20415;-95
2022/05/17 02:13:11;;;;;;;9.80;4.13;;;;;;;15.25;100.00;94757.16;4824402;29;20034;-94
2022/05/17 02:15:37;;;;;;;10.95;3.38;;;;;;;15.25;100.00;94749.25;4824279;29;20043;-94
2022/05/17 02:18:03;;;;;;;6.43;3.30;;;;;;;15.25;100.00;94754.53;4809292;29;20035;-95
2022/05/17 02:20:30;;;;;;;13.05;3.78;;;;;;;15.27;100.00;94752.38;4809556;29;20126;-96
2022/05/17 02:22:57;;;;;;;7.85;3.40;;;;;;;15.32;100.00;94756.81;4824112;29;20035;-95
2022/05/17 02:25:22;;;;;;;10.25;3.78;;;;;;;15.33;100.00;94748.59;4808870;29;20031;-95
2022/05/17 02:27:48;;;;;;;11.07;3.58;;;;;;;15.34;100.00;94746.75;4809265;29;20034;-95
2022/05/17 02:30:14;;;;;;;9.30;3.55;;;;;;;15.37;100.00;94746.16;4794101;29;20072;-96
2022/05/17 02:32:40;;;;;;;8.90;3.72;;;;;;;15.30;100.00;94754.44;4823948;29;20342;-94
2022/05/17 02:35:07;;;;;;;7.65;3.85;;;;;;;15.23;100.00;94752.16;4824041;29;20042;-94
2022/05/17 02:37:32;;;;;;;6.75;3.70;;;;;;;14.81;100.00;94746.69;4797605;29;20142;-94
2022/05/17 02:39:58;;;;;;;11.10;3.80;;;;;;;14.62;100.00;94744.00;4812784;29;20062;-94
2022/05/17 02:42:23;;;;;;;8.43;4.13;;;;;;;14.68;100.00;94747.38;4827541;29;20445;-95
2022/05/17 02:44:49;;;;;;;5.50;3.28;;;;;;;14.83;100.00;94746.41;4812338;29;20033;-94
2022/05/17 02:47:14;;;;;;;8.20;3.45;;;;;;;14.91;100.00;94744.97;4812552;29;20125;-95
2022/05/17 02:49:40;;;;;;;10.57;3.72;;;;;;;14.93;100.00;94746.25;4827503;29;20144;-94
2022/05/17 02:52:06;;;;;;;7.40;3.17;;;;;;;14.79;100.00;94751.47;4827545;29;20095;-95
2022/05/17 02:54:32;;;;;;;8.18;3.75;;;;;;;14.70;100.00;94742.59;4797647;29;20122;-95
2022/05/17 02:56:57;;;;;;;11.75;3.83;;;;;;;14.80;100.00;94745.13;4812321;29;20062;-95
2022/05/17 02:59:23;;;;;;;7.05;3.47;;;;;;;14.95;100.00;94748.63;4827283;29;20035;-95
2022/05/17 03:01:49;;;;;;;7.45;3.17;;;;;;;14.93;100.00;94743.63;4827226;29;20041;-95
2022/05/17 03:04:14;;;;;;;8.85;3.95;;;;;;;15.11;100.00;94754.44;4812041;29;20098;-95
2022/05/17 03:06:41;;;;;;;8.65;4.03;;;;;;;15.26;100.00;94745.53;4827086;29;20449;-95
2022/05/17 03:09:08;;;;;;;10.32;3.85;;;;;;;15.37;100.00;94749.59;4797008;29;20030;-95
2022/05/17 03:11:34;;;;;;;9.93;4.20;;;;;;;15.40;100.00;94743.72;4796838;29;20042;-95
2022/05/17 03:14:00;;;;;;;9.50;4.00;;;;;;;15.52;100.00;94745.91;4827302;29;20038;-94
2022/05/17 03:16:30;;;;;;;9.45;4.18;;;;;;;15.57;100.00;94739.78;4811563;29;20047;-95
2022/05/17 03:18:57;;;;;;;11.18;3.67;;;;;;;15.74;100.00;94746.34;4812322;29;20122;-95
2022/05/17 03:21:22;;;;;;;11.38;3.80;;;;;;;15.62;100.00;94742.31;4828003;29;20034;-94
2022/05/17 03:23:47;;;;;;;14.40;4.05;;;;;;;15.47;100.00;94743.38;4827380;29;20087;-96
2022/05/17 03:26:13;;;;;;;11.10;4.32;;;;;;;15.74;100.00;94747.16;4828887;29;20031;-94
2022/05/17 03:28:38;;;;;;;9.93;4.63;;;;;;;16.00;100.00;94756.53;4829893;29;20361;-95
2022/05/17 03:31:09;;;;;;;14.00;4.20;;;;;;;15.69;100.00;94750.66;4812531;29;20035;-95
2022/05/17 03:33:34;;;;;;;12.50;3.88;;;;;;;15.50;100.00;94744.66;4797383;29;20475;-95
2022/05/17 03:36:00;;;;;;;12.20;4.45;;;;;;;15.73;100.00;94750.06;4814103;29;20099;-95
2022/05/17 03:38:26;;;;;;;17.30;4.72;;;;;;;15.53;100.00;94741.44;4812757;29;20034;-95
2022/05/17 03:40:54;;;;;;;8.32;4.40;;;;;;;15.16;100.00;94753.59;4811947;29;20046;-95
2022/05/17 03:43:20;;;;;;;15.40;4.25;;;;;;;14.94;100.00;94747.06;4796865;29;20035;-95
2022/05/17 03:45:47;;;;;;;9.52;4.43;;;;;;;14.95;100.00;94749.41;4811925;29;20031;-95
2022/05/17 03:48:18;;;;;;;14.57;3.80;;;;;;;14.74;100.00;94746.25;4810433;29;20099;-95
2022/05/17 03:50:45;;;;;;;9.82;4.25;;;;;;;14.81;100.00;94759.88;4796586;29;20035;-95
2022/05/17 03:53:10;;;;;;;15.18;4.80;;;;;;;14.59;100.00;94755.13;4811615;29;20041;-94
2022/05/17 03:55:37;;;;;;;11.50;3.85;;;;;;;14.78;100.00;94755.19;4827119;29;20437;-96
2022/05/17 03:58:02;;;;;;;14.15;4.53;;;;;;;14.70;100.00;94750.50;4811712;29;20041;-95
2022/05/17 04:00:28;;;;;;;11.68;4.30;;;;;;;14.61;100.00;94754.81;4796792;29;20034;-95
2022/05/17 04:02:54;;;;;;;9.75;3.90;;;;;;;14.72;100.00;94750.25;4812019;29;20034;-95
2022/05/17 04:05:20;;;;;;;8.30;3.90;;;;;;;14.78;100.00;94755.19;4811875;29;20038;-94
2022/05/17 04:07:46;;;;;;;8.07;4.10;;;;;;;14.77;100.00;94753.59;4811628;29;20034;-95
2022/05/17 04:10:13;;;;;;;13.27;4.43;;;;;;;14.88;100.00;94750.81;4796424;29;20050;-94
2022/05/17 04:12:42;;;;;;;7.55;4.13;;;;;;;14.94;100.00;94749.69;4811815;29;20096;-94
2022/05/17 04:15:11;;;;;;;13.85;4.85;;;;;;;14.91;100.00;94752.88;4796170;29;20402;-95
2022/05/17 04:17:37;;;;;;;7.43;4.00;;;;;;;15.02;100.00;94749.03;4826200;29;20031;-95
2022/05/17 04:20:04;;;;;;;15.85;4.70;;;;;;;15.09;100.00;94749.47;4811339;29;20042;-95
2022/05/17 04:22:29;;;;;;;9.07;4.60;;;;;;;15.17;100.00;94755.97;4796170;29;20038;-94
2022/05/17 04:24:56;;;;;;;10.10;4.38;;;;;;;15.23;100.00;94751.41;4796673;29;20047;-94
2022/05/17 04:27:22;;;;;;;14.05;5.22;;;;;;;15.32;100.00;94759.44;4813879;29;20085;-95
2022/05/17 04:29:48;;;;;;;17.15;5.38;;;;;;;15.59;100.00;94755.34;4804290;29;20041;-95
2022/05/17 04:32:17;;;;;;;11.07;4.50;;;;;;;15.73;100.00;94752.72;4804347;29;20034;-94
2022/05/17 04:34:46;;;;;;;7.78;4.68;;;;;;;15.77;100.00;94761.63;4836245;29;20087;-94
2022/05/17 04:37:12;;;;;;;12.13;4.70;;;;;;;15.55;100.00;94760.41;4804669;29;20083;-94
2022/05/17 04:39:39;;;;;;;11.68;4.97;;;;;;;15.77;100.00;94762.41;4802258;29;20038;-94
2022/05/17 04:42:06;;;;;;;10.52;4.80;;;;;;;15.54;100.00;94756.19;4817812;29;20042;-95
2022/05/17 04:44:32;;;;;;;12.60;4.70;;;;;;;15.66;100.00;94761.81;4816605;29;20130;-94
2022/05/17 04:46:57;;;;;;;10.02;4.38;;;;;;;15.53;100.00;94768.59;4813650;29;20409;-96
2022/05/17 04:49:23;;;;;;;10.05;4.45;;;;;;;15.58;100.00;94764.34;4812957;29;20047;-93
2022/05/17 04:51:52;;;;;;;8.15;3.75;;;;;;;15.62;100.00;94763.44;4810525;29;20042;-95
2022/05/17 04:54:18;;;;;;;11.93;4.30;;;;;;;15.79;100.00;94768.19;4796032;29;20070;-94
2022/05/17 04:56:43;;;;;;;13.65;4.20;;;;;;;15.80;100.00;94763.72;4811502;29;20054;-93
2022/05/17 04:59:09;;;;;;;11.00;4.50;;;;;;;15.76;100.00;94767.97;4811596;29;20035;-94
2022/05/17 05:01:36;;;;;;;13.93;4.47;;;;;;;15.83;100.00;94766.53;4811238;29;20070;-93
2022/05/17 05:04:03;;;;;;;9.32;4.60;;;;;;;15.93;100.00;94770.13;4825245;29;20058;-93
2022/05/17 05:06:32;;;;;;;10.65;4.93;;;;;;;15.96;100.00;94772.97;4825457;29;20386;-94
2022/05/17 05:08:57;;;;;;;12.15;5.22;;;;;;;15.97;100.00;94769.25;4811205;29;20088;-93
2022/05/17 05:11:23;;;;;;;9.95;4.95;;;;;;;16.04;100.00;94774.16;4811949;29;20379;-95
2022/05/17 05:13:48;;;;;;;11.15;4.75;;;;;;;16.14;100.00;94775.81;4811476;29;20035;-94
2022/05/17 05:16:16;;;;;;;11.13;4.70;;;;;;;16.14;100.00;94764.44;4811847;29;20077;-94
2022/05/17 05:18:41;;;;;;;17.05;5.30;;;;;;;16.30;100.00;94771.03;4826069;29;20371;-94
2022/05/17 05:21:09;;;;;;;9.27;4.57;;;;;;;16.33;100.00;94777.59;4810191;29;20042;-94
2022/05/17 05:23:36;;;;;;;9.20;4.40;;;;;;;16.54;100.00;94778.78;4825080;29;20062;-94
2022/05/17 05:26:02;;;;;;;15.35;5.32;;;;;;;16.63;100.00;94778.06;4810809;29;20062;-94
2022/05/17 05:28:28;;;;;;;11.23;5.10;;;;;;;16.61;100.00;94783.66;4810816;29;20338;-93
2022/05/17 05:30:55;;;;;;;12.15;5.13;;;;;;;16.69;100.00;94779.56;4810151;29;20090;-94
2022/05/17 05:33:21;;;;;;;18.27;5.93;;;;;;;16.74;100.00;94779.44;4824981;29;20031;-93
2022/05/17 05:35:46;;;;;;;14.10;4.85;;;;;;;16.86;100.00;94776.31;4810499;29;20041;-93
2022/05/17 05:38:12;;;;;;;10.43;4.18;;;;;;;17.07;100.00;94776.69;4810776;29;20031;-94
2022/05/17 05:40:37;;;;;;;17.48;5.60;;;;;;;17.09;100.00;94773.72;4810513;29;20034;-93
2022/05/17 05:43:03;;;;;;;9.68;4.57;;;;;;;17.18;100.00;94779.88;4810678;29;20417;-94
2022/05/17 05:45:28;;;;;;;12.65;4.90;;;;;;;17.32;100.00;94784.34;4810438;29;20026;-93
2022/05/17 05:47:54;;;;;;;15.68;4.53;;;;;;;17.45;100.00;94782.72;4810401;29;20069;-94
2022/05/17 05:50:20;;;;;;;12.05;4.95;;;;;;;17.65;100.00;94778.81;4810392;29;20402;-93
2022/05/17 05:52:47;;;;;;;13.32;4.50;;;;;;;17.50;100.00;94782.59;4810439;29;20068;-94
2022/05/17 05:55:18;;;;;;;9.40;3.83;;;;;;;17.65;100.00;94776.16;4810288;29;20060;-94
2022/05/17 05:57:43;;;;;;;9.50;4.07;;;;;;;17.78;100.00;94777.16;4810312;29;20031;-95
2022/05/17 06:00:11;;;;;;;7.35;3.75;;;;;;;17.82;100.00;94780.78;4810278;29;20087;-94
2022/05/17 06:02:36;;;;;;;10.43;4.18;;;;;;;18.02;100.00;94784.00;4810212;29;20047;-94
2022/05/17 06:05:02;;;;;;;8.93;4.18;;;;;;;17.94;100.00;94786.31;4810132;29;20030;-94
2022/05/17 06:07:28;;;;;;;13.85;4.10;;;;;;;18.20;100.00;94788.34;4810099;29;20091;-94
2022/05/17 06:09:53;;;;;;;12.98;3.53;;;;;;;18.25;100.00;94786.66;4809660;29;20088;-94
2022/05/17 06:12:18;;;;;;;8.88;3.80;;;;;;;18.00;100.00;94794.13;4809905;29;20041;-94
2022/05/17 06:14:44;;;;;;;10.55;3.92;;;;;;;18.05;100.00;94786.88;4808792;29;20119;-94
2022/05/17 06:17:09;;;;;;;10.13;3.60;;;;;;;18.02;100.00;94784.84;4810038;29;20420;-93
2022/05/17 06:19:35;;;;;;;11.43;4.05;;;;;;;18.11;100.00;94784.09;4810026;29;20031;-95
2022/05/17 06:22:00;;;;;;;8.05;3.92;;;;;;;18.07;100.00;94786.56;4824112;29;20039;-94
2022/05/17 06:24:27;;;;;;;11.57;4.00;;;;;;;18.11;100.00;94784.88;4824212;29;20030;-95
2022/05/17 06:26:52;;;;;;;9.25;3.83;;;;;;;18.35;100.00;94792.47;4810002;29;20031;-94
2022/05/17 06:29:18;;;;;;;14.27;3.95;;;;;;;18.39;100.00;94782.03;4810001;29;20516;-95
2022/05/17 06:31:43;;;;;;;9.57;3.72;;;;;;;18.40;100.00;94786.25;4808779;29;20030;-93
2022/05/17 06:34:09;;;;;;;11.68;4.07;;;;;;;18.56;100.00;94791.91;4824076;29;20065;-95
2022/05/17 06:36:34;;;;;;;8.52;3.65;;;;;;;18.77;100.00;94792.13;4824048;29;20038;-94
2022/05/17 06:39:00;;;;;;;18.92;4.10;;;;;;;18.88;100.00;94786.53;4823650;29;20092;-94
2022/05/17 06:41:25;;;;;;;8.23;4.10;;;;;;;18.81;100.00;94781.66;4808772;29;20027;-94
2022/05/17 06:43:51;;;;;;;13.25;5.03;;;;;;;18.89;100.00;94782.78;4824207;29;20034;-92
2022/05/17 06:46:16;;;;;;;9.32;3.70;;;;;;;18.94;100.00;94783.41;4823758;29;20423;-93
2022/05/17 06:48:43;;;;;;;12.13;4.18;;;;;;;19.06;100.00;94785.47;4823881;29;20107;-92
2022/05/17 06:51:09;;;;;;;8.15;3.53;;;;;;;19.25;100.00;94773.00;4824064;29;20048;-94
2022/05/17 06:53:35;;;;;;;16.92;7.10;;;;;;;19.31;100.00;94777.84;4823839;29;20374;-93
2022/05/17 06:56:04;;;;;;;12.38;4.10;;;;;;;19.18;100.00;94781.44;4823643;29;20030;-92
2022/05/17 06:58:30;;;;;;;10.07;4.07;;;;;;;19.52;100.00;94776.44;4809836;29;20106;-93
2022/05/17 07:00:56;;;;;;;8.95;3.90;;;;;;;19.68;100.00;94782.06;4823918;29;20145;-93
2022/05/17 07:03:22;;;;;;;13.98;4.47;;;;;;;19.67;100.00;94778.59;4823551;29;20042;-93
2022/05/17 07:05:48;;;;;;;8.30;3.80;;;;;;;19.75;100.00;94777.81;4823508;29;20027;-93
2022/05/17 07:08:14;;;;;;;9.95;4.43;;;;;;;19.76;100.00;94791.88;4808547;29;20042;-92
2022/05/17 07:13:24;;;;;;;7.05;4.15;;;;;;;19.87;100.00;94787.78;4821544;29;20037;-94
2022/05/17 07:15:50;;;;;;;8.57;3.90;;;;;;;19.82;100.00;94790.63;4809392;29;20125;-94
2022/05/17 07:18:18;;;;;;;11.77;4.05;;;;;;;20.09;100.00;94783.41;4823480;29;20030;-92
2022/05/17 07:20:44;;;;;;;11.65;4.18;;;;;;;20.16;100.00;94786.34;4809479;29;20062;-93
2022/05/17 07:23:11;;;;;;;9.68;4.03;;;;;;;20.36;100.00;94785.97;4810910;29;20046;-93
2022/05/17 07:25:40;;;;;;;11.88;4.25;;;;;;;20.38;100.00;94783.75;4812706;29;20029;-94
2022/05/17 07:28:09;;;;;;;9.77;4.00;;;;;;;20.55;100.00;94789.00;4826427;29;20027;-95
2022/05/17 07:30:34;;;;;;;11.02;4.47;;;;;;;20.71;100.00;94788.44;4826642;29;20030;-95
2022/05/17 07:33:01;;;;;;;15.32;4.57;;;;;;;20.75;100.00;94792.81;4826738;29;20042;-94
2022/05/17 07:35:27;;;;;;;8.85;3.92;;;;;;;20.74;100.00;94791.25;4811271;29;20478;-92
2022/05/17 07:37:52;;;;;;;14.95;4.57;;;;;;;20.86;100.00;94787.16;4826758;29;20027;-94
2022/05/17 07:40:18;;;;;;;12.10;4.40;;;;;;;20.90;100.00;94788.06;4812483;29;20033;-93
2022/05/17 07:42:44;;;;;;;9.65;4.18;;;;;;;21.15;100.00;94783.66;4826436;29;20053;-93
2022/05/17 07:45:10;;;;;;;17.15;4.70;;;;;;;21.34;100.00;94787.78;4811311;29;20027;-93
2022/05/17 07:47:36;;;;;;;9.98;4.18;;;;;;;21.41;100.00;94781.91;4826464;29;20129;-94
2022/05/17 07:50:03;;;;;;;11.50;4.07;;;;;;;21.54;100.00;94782.75;4826316;29;20125;-93
2022/05/17 07:52:29;;;;;;;15.82;4.72;;;;;;;21.42;100.00;94778.16;4812348;29;20459;-93
2022/05/17 07:54:54;;;;;;;8.93;4.20;;;;;;;21.59;100.00;94774.53;4811193;29;20133;-94
2022/05/17 07:57:21;;;;;;;10.43;4.65;;;;;;;21.66;100.00;94769.50;4810968;29;20034;-93
2022/05/17 07:59:46;;;;;;;15.82;4.05;;;;;;;21.87;100.00;94773.97;4812137;29;20023;-93
2022/05/17 08:02:12;;;;;;;10.35;3.95;;;;;;;21.97;100.00;94770.91;4826285;29;20037;-93
2022/05/17 08:04:38;;;;;;;10.65;4.60;;;;;;;22.21;100.00;94769.41;4826025;29;20026;-94
2022/05/17 08:07:04;;;;;;;8.25;3.95;;;;;;;22.32;100.00;94761.72;4826044;29;20035;-94
2022/05/17 08:09:30;;;;;;;14.02;4.10;;;;;;;22.29;100.00;94767.75;4826317;29;20114;-93
2022/05/17 08:11:56;;;;;;;13.57;4.28;;;;;;;22.45;100.00;94771.31;4812027;29;20113;-93
2022/05/17 08:14:22;;;;;;;9.00;4.82;;;;;;;22.26;100.00;94768.41;4825810;29;20099;-95
2022/05/17 08:16:48;;;;;;;10.23;4.20;;;;;;;22.45;100.00;94771.31;4825838;29;20027;-93
2022/05/17 08:19:14;;;;;;;7.53;3.63;;;;;;;22.45;100.00;94773.97;4825870;29;20445;-93
2022/05/17 08:21:40;;;;;;;14.07;4.20;;;;;;;22.57;100.00;94775.88;4810802;29;20091;-93
2022/05/17 08:24:06;;;;;;;10.15;4.30;;;;;;;22.70;100.00;94776.69;4810541;29;20031;-94
2022/05/17 08:29:16;;;;;;;8.23;3.60;;;;;;;22.63;100.00;94775.69;4823685;29;20361;-94
2022/05/17 08:31:42;;;;;;;14.80;4.13;;;;;;;22.69;100.00;94788.47;4811600;29;20057;-96
2022/05/17 08:34:11;;;;;;;12.10;4.20;;;;;;;22.91;100.00;94775.75;4810043;29;20030;-96
2022/05/17 08:36:36;;;;;;;8.63;4.15;;;;;;;22.63;100.00;94776.44;4825858;29;20442;-93
2022/05/17 08:39:02;;;;;;;15.85;4.57;;;;;;;22.89;100.00;94780.66;4825730;29;20037;-95
2022/05/17 08:41:33;;;;;;;8.35;4.18;;;;;;;22.79;100.00;94789.13;4811619;29;20039;-94
2022/05/17 08:44:14;;;;;;;18.63;4.28;;;;;;;22.81;100.00;94781.53;4825614;29;20033;-95
2022/05/17 08:46:45;;;;;;;9.27;4.75;;;;;;;22.84;100.00;94776.31;4810883;29;20035;-95
2022/05/17 08:49:22;;;;;;;14.57;5.38;;;;;;;22.97;100.00;94774.41;4813591;29;20392;-96
2022/05/17 08:51:59;;;;;;;11.30;4.57;;;;;;;22.78;100.00;94783.00;4812963;29;20034;-95
2022/05/17 08:54:31;;;;;;;14.10;5.28;;;;;;;22.92;100.00;94782.66;4811083;29;20031;-94
2022/05/17 08:57:30;;;;;;;12.18;5.20;;;;;;;23.15;100.00;94784.84;4825668;29;20042;-93
2022/05/17 08:59:58;;;;;;;11.27;4.55;;;;;;;23.48;100.00;94786.56;4817281;29;20064;-95
2022/05/17 09:02:36;;;;;;;10.95;4.60;;;;;;;23.49;100.00;94777.41;4825383;29;20357;-94
2022/05/17 09:05:28;;;;;;;10.93;4.72;;;;;;;23.67;100.00;94779.78;4795272;29;20171;-95
2022/05/17 09:08:16;;;;;;;19.02;5.18;;;;;;;23.38;100.00;94781.69;4826015;29;20085;-96
2022/05/17 09:10:49;;;;;;;13.05;5.10;;;;;;;23.56;100.00;94782.97;4811169;29;20039;-94
2022/05/17 09:13:52;;;;;;;12.27;4.23;;;;;;;23.63;100.00;94777.03;4826027;29;20077;-93
2022/05/17 09:16:21;;;;;;;10.52;3.95;;;;;;;23.78;100.00;94780.09;4811176;29;20052;-95
2022/05/17 09:18:47;;;;;;;12.68;4.20;;;;;;;23.78;100.00;94788.88;4825329;29;20433;-94
2022/05/17 09:21:41;;;;;;;12.48;4.38;;;;;;;24.05;100.00;94783.09;4825284;29;20035;-96
2022/05/17 09:24:14;;;;;;;9.32;4.00;;;;;;;23.14;100.00;94778.72;4810019;29;20041;-95
2022/05/17 09:26:47;;;;;;;12.38;4.55;;;;;;;23.19;100.00;94782.28;4811104;29;20091;-95
2022/05/17 09:29:22;;;;;;;10.40;3.63;;;;;;;22.77;100.00;94776.13;4811004;29;20027;-94
2022/05/17 09:31:53;;;;;;;9.18;4.50;;;;;;;23.14;100.00;94775.28;4824972;29;20476;-95
2022/05/17 09:34:38;;;;;;;14.43;4.40;;;;;;;23.16;100.00;94778.38;4810095;29;20030;-95
2022/05/17 09:37:08;;;;;;;15.23;4.75;;;;;;;22.98;100.00;94775.97;4809643;29;20450;-95
2022/05/17 09:39:34;;;;;;;11.27;4.97;;;;;;;22.64;100.00;94778.00;4809954;29;20052;-96
2022/05/17 09:45:38;;;;;;;12.43;5.30;;;;;;;22.83;100.00;94780.09;4810606;29;20149;-95
2022/05/17 09:48:07;;;;;;;11.85;4.90;;;;;;;23.21;100.00;94775.47;4809967;29;20087;-96
2022/05/17 09:53:44;;;;;;;7.28;3.95;;;;;;;23.44;100.00;94778.44;4810152;29;20046;-94
2022/05/17 09:56:09;;;;;;;7.72;3.90;;;;;;;23.18;100.00;94778.06;4824502;29;20039;-94
2022/05/17 09:58:38;;;;;;;7.55;3.58;;;;;;;23.43;100.00;94778.78;4824532;29;20027;-93
2022/05/17 10:01:11;;;;;;;11.32;4.40;;;;;;;23.55;100.00;94781.41;4809271;29;20034;-96
2022/05/17 10:03:39;;;;;;;12.63;4.63;;;;;;;23.86;100.00;94771.91;4824735;29;20027;-95
2022/05/17 10:06:07;;;;;;;12.65;4.00;;;;;;;23.95;100.00;94774.44;4794519;29;20023;-96
2022/05/17 10:08:42;;;;;;;12.77;3.63;;;;;;;23.96;100.00;94773.31;4810038;29;20038;-95
2022/05/17 10:11:26;;;;;;;13.30;3.70;;;;;;;24.18;94.29;94776.56;4810318;29;20027;-96
2022/05/17 10:13:58;;;;;;;12.75;3.97;;;;;;;24.21;97.62;94767.03;4826527;29;20034;-95
2022/05/17 10:16:36;;;;;;;12.73;5.10;;;;;;;24.29;100.00;94769.53;4825130;29;20031;-96
2022/05/17 10:19:12;;;;;;;19.92;5.40;;;;;;;24.17;100.00;94768.88;4828876;29;20039;-95
2022/05/17 10:21:48;;;;;;;18.25;6.20;;;;;;;23.95;100.00;94771.75;4827093;29;20194;-94
2022/05/17 10:24:29;;;;;;;11.90;4.72;;;;;;;23.89;100.00;94761.63;4795108;29;20094;-95
2022/05/17 10:27:12;;;;;;;14.90;4.82;;;;;;;24.16;100.00;94765.41;4796908;29;20047;-96
2022/05/17 10:29:46;;;;;;;11.77;6.00;;;;;;;24.17;100.00;94755.47;4827748;29;20038;-94
2022/05/17 10:32:21;;;;;;;10.02;4.60;;;;;;;24.55;100.00;94764.81;4795404;29;20272;-95
2022/05/17 11:05:34;;;;;;;17.15;5.15;;;;;;;25.05;100.00;94756.34;4795441;29;20079;-96
2022/05/17 11:08:58;;;;;;;9.50;4.55;;;;;;;24.21;100.00;94740.28;4794940;29;20062;-96
2022/05/17 11:11:54;;;;;;;8.13;4.38;;;;;;;24.83;100.00;94737.88;4771877;30;20446;-96
2022/05/17 11:15:33;;;;;;;11.35;4.60;;;;;;;25.04;100.00;94741.38;4774103;30;20042;-96
2022/05/17 11:34:53;;;;;;;11.15;5.15;;;;;;;25.40;97.15;94734.81;5040787;24;20043;-95
2022/05/17 11:45:55;;;;;;;7.60;4.30;;;;;;;24.85;79.70;94724.16;5270334;24;20071;-95
2022/05/17 11:48:47;;;;;;;6.88;3.92;;;;;;;25.06;93.27;94723.81;4841009;29;20047;-95
2022/05/17 11:51:23;;;;;;;18.98;4.70;;;;;;;25.26;94.98;94729.19;4823456;29;20039;-95
2022/05/17 11:57:37;;;;;;;9.90;3.42;;;;;;;25.40;75.69;94720.66;4830020;29;20045;-95
2022/05/17 12:03:50;;;;;;;10.65;3.95;;;;;;;25.60;80.03;94715.28;4829407;29;20101;-96
2022/05/17 12:09:49;;;;;;;9.40;4.95;;;;;;;25.77;94.38;94706.03;5025014;24;20108;-95
2022/05/17 12:16:05;;;;;;;9.13;3.60;;;;;;;25.75;81.43;94692.94;4811106;30;20100;-95
2022/05/17 12:28:23;;;;;;;15.75;4.15;;;;;;;26.02;85.23;94679.59;4804494;29;20053;-95
2022/05/17 12:34:18;;;;;;;15.80;4.90;;;;;;;25.60;85.69;94683.09;4809255;30;20046;-96
2022/05/17 12:37:05;;;;;;;;;;;;;;;25.62;82.64;94678.16;4809222;30;20051;-96
2022/05/17 12:43:08;;;;;;;7.95;4.15;;;;;;;26.10;94.42;94670.50;4810199;29;20054;-96
2022/05/17 12:45:42;;;;;;;8.07;3.78;;;;;;;26.10;82.52;94669.75;4804209;30;20038;-96
2022/05/17 12:48:19;;;;;;;9.35;4.07;;;;;;;26.58;83.05;94663.16;4807628;30;20031;-94
2022/05/17 12:51:01;;;;;;;9.10;4.30;;;;;;;26.13;83.46;94658.28;4821519;29;20043;-96
2022/05/17 12:56:51;;;;;;;12.43;5.40;;;;;;;25.74;79.74;94664.56;4809732;30;20047;-96
2022/05/17 12:59:27;;;;;;;11.07;4.80;;;;;;;25.94;93.84;94661.81;4796524;30;20043;-94
2022/05/17 13:02:02;;;;;;;12.50;4.68;;;;;;;25.83;86.83;94669.69;4792162;30;20042;-94
2022/05/17 13:04:39;;;;;;;10.63;4.43;;;;;;;26.11;82.05;94661.34;4807380;29;20047;-95
2022/05/17 13:07:13;;;;;;;12.85;4.82;;;;;;;26.05;73.84;94648.56;4807481;30;20035;-96
2022/05/17 13:10:04;;;;;;;12.98;4.10;;;;;;;25.90;81.42;94659.09;4803710;30;20429;-95
2022/05/17 13:12:37;;;;;;;7.82;4.57;;;;;;;25.74;77.94;94653.84;4807435;30;20042;-96
2022/05/17 13:15:10;;;;;;;11.70;4.47;;;;;;;25.97;79.93;94645.75;4807660;30;20045;-94
2022/05/17 13:17:38;;;;;;;;;;;;;;;26.15;75.84;94655.25;4821634;29;20035;-94
2022/05/17 13:20:24;;;;;;;9.75;3.85;;;;;;;26.45;72.46;94651.84;4805496;29;19918;-95